»·PEaware :: N805RJ KIZA-KAPV

N805RJ :: KIZA-KAPV

FLIGHT INFORMATION

Flight Status: Arrived
Operator: Privately registered:
United States
More flights under this callsign
Pilot: Rickie J. (22768)
Aircraft: CESSNA 172 SKYHAWK
(C172)
More flights by this aircraft type
Origin: KIZA Santa Ynez
United States
Destination: KAPV Apple Valley
United States
More flights between these airports :: More routes between these airports
Route: RZS V12 NASTE
File this flight plan on PilotEdge
Remarks:
Altitude:
(Current/Filed)
9,500ft
Speed:
(Current/Filed)
120kts
Departed: 25-Jul-20 01:56 PM
Arrived: 25-Jul-20 03:23 PM
Distance/Time
Traveled:
143nm/1:27
Distance/Time
To Go:
Arrived

Flight Plot

Page will automatically refresh every two minutes.

Flight plan parsing failed; only flown route is shown


Map Options




Map Legend


Flown Route
Filed Route
Departure Airport
Arrival Airport
Navaid (VOR, NDB)
Fix

Horizontal Profiles

Position Reports

Time Latitude Longitude Heading Altitude Ground
Speed
25-Jul-20 13:26 34.607900 -120.073310 190 674ft 0kts
25-Jul-20 13:27 34.607900 -120.073310 190 674ft 0kts
25-Jul-20 13:28 34.607900 -120.073310 190 674ft 0kts
25-Jul-20 13:29 34.607900 -120.073310 190 674ft 0kts
25-Jul-20 13:30 34.607900 -120.073310 190 674ft 0kts
25-Jul-20 13:31 34.607900 -120.073310 190 674ft 0kts
25-Jul-20 13:32 34.607900 -120.073310 190 674ft 0kts
25-Jul-20 13:33 34.607900 -120.073310 190 674ft 0kts
25-Jul-20 13:34 34.607900 -120.073310 190 674ft 0kts
25-Jul-20 13:35 34.607900 -120.073310 190 674ft 0kts
25-Jul-20 13:36 34.607900 -120.073310 190 674ft 0kts
25-Jul-20 13:37 34.607900 -120.073310 190 674ft 0kts
25-Jul-20 13:38 34.607900 -120.073310 190 674ft 0kts
25-Jul-20 13:38 34.607900 -120.073310 190 674ft 0kts
25-Jul-20 13:40 34.607900 -120.073310 190 674ft 0kts
25-Jul-20 13:41 34.607900 -120.073310 190 674ft 0kts
25-Jul-20 13:41 34.607900 -120.073310 190 674ft 0kts
25-Jul-20 13:43 34.607900 -120.073310 190 674ft 0kts
25-Jul-20 13:44 34.607900 -120.073310 190 674ft 0kts
25-Jul-20 13:44 34.607900 -120.073310 190 674ft 0kts
25-Jul-20 13:45 34.607900 -120.073310 190 674ft 0kts
25-Jul-20 13:47 34.607900 -120.073310 190 674ft 0kts
25-Jul-20 13:47 34.607875 -120.073317 195 674ft 0kts
25-Jul-20 13:49 34.607613 -120.073824 197 674ft 2kts
25-Jul-20 13:49 34.607050 -120.074047 103 674ft 4kts
25-Jul-20 13:50 34.606807 -120.072000 99 674ft 7kts
25-Jul-20 13:51 34.606705 -120.071198 98 674ft 0kts
25-Jul-20 13:52 34.606705 -120.071199 98 674ft 0kts
25-Jul-20 13:53 34.606705 -120.071199 98 674ft 0kts
25-Jul-20 13:54 34.606361 -120.072012 278 674ft 34kts
25-Jul-20 13:55 34.608981 -120.099842 274 1216ft 91kts
25-Jul-20 13:56 34.611458 -120.130232 273 2017ft 89kts
25-Jul-20 13:57 34.613607 -120.159846 262 2823ft 89kts
25-Jul-20 13:58 34.597095 -120.153713 96 3630ft 100kts
25-Jul-20 13:59 34.595259 -120.120328 95 4433ft 97kts
25-Jul-20 14:00 34.594254 -120.087665 96 5156ft 97kts
25-Jul-20 14:01 34.595961 -120.055431 85 5854ft 95kts
25-Jul-20 14:02 34.589958 -120.023437 104 6463ft 100kts
25-Jul-20 14:03 34.580477 -119.992509 106 7051ft 99kts
25-Jul-20 14:04 34.570715 -119.961786 106 7646ft 97kts
25-Jul-20 14:05 34.560976 -119.931256 107 8140ft 100kts
25-Jul-20 14:06 34.551150 -119.900528 107 8629ft 99kts
25-Jul-20 14:07 34.541428 -119.870122 108 9106ft 98kts
25-Jul-20 14:08 34.531404 -119.838814 109 9506ft 101kts
25-Jul-20 14:09 34.519719 -119.802399 109 9504ft 124kts
25-Jul-20 14:10 34.510870 -119.762054 86 9503ft 125kts
25-Jul-20 14:11 34.513646 -119.719770 83 9503ft 126kts
25-Jul-20 14:12 34.516919 -119.677562 83 9502ft 126kts
25-Jul-20 14:13 34.520200 -119.635253 83 9503ft 126kts
25-Jul-20 14:14 34.523461 -119.593008 83 9503ft 126kts
25-Jul-20 14:15 34.526708 -119.550726 83 9503ft 126kts
25-Jul-20 14:16 34.529936 -119.508512 83 9501ft 126kts
25-Jul-20 14:17 34.533203 -119.466209 83 9502ft 126kts
25-Jul-20 14:18 34.536443 -119.423855 83 9503ft 126kts
25-Jul-20 14:19 34.539642 -119.381512 83 9502ft 126kts
25-Jul-20 14:20 34.542784 -119.339659 84 9503ft 126kts
25-Jul-20 14:21 34.545974 -119.296910 84 9503ft 127kts
25-Jul-20 14:22 34.549141 -119.254347 84 9503ft 127kts
25-Jul-20 14:23 34.552290 -119.211792 84 9503ft 127kts
25-Jul-20 14:24 34.555356 -119.170106 84 9630ft 121kts
25-Jul-20 14:25 34.558476 -119.127541 84 9569ft 131kts
25-Jul-20 14:26 34.561703 -119.083263 84 9506ft 130kts
25-Jul-20 14:27 34.564781 -119.040857 84 9507ft 129kts
25-Jul-20 14:28 34.567998 -118.996299 84 9506ft 129kts
25-Jul-20 14:29 34.571133 -118.952772 84 9506ft 129kts
25-Jul-20 14:30 34.574250 -118.909168 85 9507ft 130kts
25-Jul-20 14:31 34.577346 -118.865624 84 9508ft 130kts
25-Jul-20 14:32 34.580406 -118.822421 85 9506ft 128kts
25-Jul-20 14:33 34.583436 -118.779295 85 9506ft 128kts
25-Jul-20 14:34 34.586452 -118.736254 85 9506ft 128kts
25-Jul-20 14:35 34.589454 -118.693127 85 9505ft 128kts
25-Jul-20 14:36 34.592442 -118.650029 85 9507ft 128kts
25-Jul-20 14:37 34.595416 -118.606998 85 9506ft 128kts
25-Jul-20 14:38 34.598445 -118.562782 85 9358ft 132kts
25-Jul-20 14:39 34.601373 -118.519984 85 9448ft 125kts
25-Jul-20 14:40 34.604224 -118.478001 85 9504ft 126kts
25-Jul-20 14:41 34.607123 -118.435067 85 9503ft 128kts
25-Jul-20 14:42 34.610025 -118.391824 85 9502ft 129kts
25-Jul-20 14:43 34.612858 -118.349470 86 9502ft 129kts
25-Jul-20 14:44 34.615737 -118.306198 86 9503ft 129kts
25-Jul-20 14:45 34.618603 -118.262835 86 9503ft 129kts
25-Jul-20 14:46 34.621432 -118.219860 86 9503ft 129kts
25-Jul-20 14:47 34.624259 -118.176615 86 9529ft 128kts
25-Jul-20 14:48 34.627096 -118.133042 85 9506ft 130kts
25-Jul-20 14:49 34.629916 -118.089490 85 9506ft 129kts
25-Jul-20 14:50 34.633596 -118.046096 83 9506ft 129kts
25-Jul-20 14:51 34.638289 -118.002869 83 9506ft 129kts
25-Jul-20 14:52 34.643059 -117.959215 83 9452ft 131kts
25-Jul-20 14:53 34.647766 -117.916134 83 9504ft 129kts
25-Jul-20 14:54 34.652474 -117.872865 83 9496ft 130kts
25-Jul-20 14:55 34.657329 -117.827811 83 9100ft 133kts
25-Jul-20 14:56 34.661963 -117.784687 83 8700ft 128kts
25-Jul-20 14:57 34.666432 -117.742810 83 8308ft 128kts
25-Jul-20 14:58 34.670909 -117.700897 82 7918ft 128kts
25-Jul-20 14:59 34.675425 -117.659030 82 7525ft 129kts
25-Jul-20 15:00 34.680010 -117.615938 82 7127ft 129kts
25-Jul-20 15:01 34.684666 -117.572302 85 6729ft 131kts
25-Jul-20 15:02 34.689258 -117.528611 86 6331ft 130kts
25-Jul-20 15:03 34.693876 -117.487730 75 6299ft 118kts
25-Jul-20 15:04 34.711912 -117.453124 58 6166ft 128kts
25-Jul-20 15:05 34.733034 -117.417738 57 6000ft 123kts
25-Jul-20 15:06 34.752868 -117.384533 57 6001ft 120kts
25-Jul-20 15:07 34.772592 -117.351481 57 6002ft 120kts
25-Jul-20 15:08 34.792115 -117.318748 58 6003ft 121kts
25-Jul-20 15:09 34.811085 -117.284284 75 5939ft 124kts
25-Jul-20 15:10 34.814283 -117.243784 90 5998ft 120kts
25-Jul-20 15:11 34.815198 -117.203131 91 5997ft 120kts
25-Jul-20 15:12 34.813907 -117.162447 126 5844ft 126kts
25-Jul-20 15:13 34.783651 -117.147375 166 5800ft 115kts
25-Jul-20 15:14 34.753628 -117.137002 176 5799ft 109kts
25-Jul-20 15:15 34.726038 -117.141443 193 5798ft 88kts
25-Jul-20 15:16 34.704042 -117.147351 195 5772ft 80kts
25-Jul-20 15:17 34.678970 -117.154822 197 5250ft 97kts
25-Jul-20 15:18 34.654291 -117.162130 199 4674ft 87kts
25-Jul-20 15:19 34.630253 -117.169316 200 4104ft 91kts
25-Jul-20 15:20 34.604465 -117.176963 199 3517ft 99kts
25-Jul-20 15:21 34.580793 -117.184933 197 3067ft 64kts
25-Jul-20 15:22 34.573182 -117.187813 247 3066ft 5kts
25-Jul-20 15:23 34.573240 -117.188535 286 3066ft 0kts
25-Jul-20 15:24 34.574102 -117.188644 16 3066ft 7kts
25-Jul-20 15:25 34.576714 -117.187721 14 3066ft 8kts
25-Jul-20 15:26 34.576601 -117.188458 300 3066ft 5kts
25-Jul-20 15:27 34.576950 -117.188859 102 3066ft 0kts
25-Jul-20 15:28 34.576949 -117.188856 97 3066ft 0kts
25-Jul-20 15:29 34.576949 -117.188856 97 3066ft 0kts
25-Jul-20 15:30 34.576949 -117.188856 97 3066ft 0kts
25-Jul-20 15:31 34.576949 -117.188856 97 3066ft 0kts

Navigation Log

Ident Type
Flight plan parsing failed, navigation log unavailable